Time;durP1;ratioP1;P1;durP2;ratioP2;P2;SDS_P1;SDS_P2;PMS_P1;PMS_P2;Temp;Humidity;BMP_temperature;BMP_pressure;BME280_temperature;BME280_humidity;BME280_pressure;Samples;Min_cycle;Max_cycle;Signal;HPM_P1;HPM_P2
2022/05/08 00:02:19;;;;;;;8.77;7.00;;;16.60;68.50;;;;;;4981668;28;20478;-44
2022/05/08 00:04:50;;;;;;;9.53;8.50;;;16.60;68.80;;;;;;4978635;28;20820;-43
2022/05/08 00:07:20;;;;;;;6.90;6.20;;;16.60;68.70;;;;;;4978910;28;20866;-44
2022/05/08 00:09:48;;;;;;;8.00;7.30;;;16.50;68.80;;;;;;4960354;28;20455;-44
2022/05/08 00:12:16;;;;;;;7.90;7.10;;;16.50;69.00;;;;;;4982996;28;20846;-44
2022/05/08 00:14:44;;;;;;;7.63;6.97;;;16.50;69.10;;;;;;4982607;28;20468;-44
2022/05/08 00:17:14;;;;;;;9.40;7.90;;;16.50;69.00;;;;;;4980277;28;20868;-44
2022/05/08 00:19:43;;;;;;;7.60;6.90;;;16.40;69.10;;;;;;4981123;28;20479;-44
2022/05/08 00:22:11;;;;;;;7.30;6.60;;;16.40;69.40;;;;;;4962473;28;20476;-44
2022/05/08 00:25:00;;;;;;;10.53;7.37;;;16.40;69.40;;;;;;4975419;28;20472;-44
2022/05/08 00:27:27;;;;;;;7.27;6.37;;;16.30;69.40;;;;;;4980041;28;21018;-44
2022/05/08 00:29:53;;;;;;;8.40;6.40;;;16.30;69.50;;;;;;4980891;28;20891;-44
2022/05/08 00:32:21;;;;;;;7.77;7.17;;;16.30;69.70;;;;;;4981727;28;20890;-44
2022/05/08 00:34:48;;;;;;;7.70;6.83;;;16.30;69.60;;;;;;4980273;28;20966;-44
2022/05/08 00:37:15;;;;;;;8.80;6.90;;;16.30;69.70;;;;;;4980809;28;20446;-44
2022/05/08 00:39:43;;;;;;;8.60;7.80;;;16.30;69.80;;;;;;4976798;28;20564;-44
2022/05/08 00:42:10;;;;;;;7.53;6.93;;;16.20;69.90;;;;;;4983764;28;20898;-44
2022/05/08 00:44:37;;;;;;;9.57;6.80;;;16.20;69.80;;;;;;4968232;28;21035;-43
2022/05/08 00:47:04;;;;;;;7.40;6.80;;;16.20;69.90;;;;;;4983577;28;20806;-43
2022/05/08 00:49:31;;;;;;;7.77;7.17;;;16.20;70.10;;;;;;4960792;28;20478;-44
2022/05/08 00:51:58;;;;;;;11.07;7.17;;;16.20;70.20;;;;;;4978629;28;20519;-44
2022/05/08 00:54:26;;;;;;;9.60;8.10;;;16.10;70.30;;;;;;4979891;28;20485;-44
2022/05/08 00:56:54;;;;;;;8.67;7.83;;;16.10;70.40;;;;;;4961820;28;20469;-44
2022/05/08 00:59:21;;;;;;;7.80;7.10;;;16.10;70.40;;;;;;4979892;28;20916;-44
2022/05/08 01:01:47;;;;;;;7.97;7.17;;;16.10;70.40;;;;;;4979552;28;20556;-44
2022/05/08 01:04:14;;;;;;;8.63;7.80;;;16.10;70.50;;;;;;4984463;28;20555;-44
2022/05/08 01:06:43;;;;;;;9.53;7.83;;;16.10;70.50;;;;;;4979439;28;20507;-44
2022/05/08 01:09:10;;;;;;;8.33;7.37;;;16.10;70.50;;;;;;4978430;28;20545;-44
2022/05/08 01:11:37;;;;;;;7.07;6.00;;;16.00;70.60;;;;;;4980775;28;20460;-43
2022/05/08 01:14:03;;;;;;;7.93;7.27;;;16.00;70.70;;;;;;4966767;28;20474;-44
2022/05/08 01:16:30;;;;;;;8.63;7.83;;;16.00;70.80;;;;;;4958758;28;20594;-44
2022/05/08 01:18:59;;;;;;;8.47;7.53;;;16.00;70.60;;;;;;4960101;28;20477;-44
2022/05/08 01:21:38;;;;;;;7.30;6.60;;;16.00;70.80;;;;;;4977689;28;20476;-43
2022/05/08 01:24:05;;;;;;;7.93;7.13;;;16.00;70.80;;;;;;4978408;28;20575;-43
2022/05/08 01:26:32;;;;;;;9.40;7.47;;;15.90;70.90;;;;;;4978766;28;20465;-43
2022/05/08 01:29:00;;;;;;;7.47;6.70;;;15.90;71.00;;;;;;4967019;28;20470;-43
2022/05/08 01:31:27;;;;;;;9.90;7.43;;;15.90;71.10;;;;;;4978973;28;20819;-43
2022/05/08 01:33:54;;;;;;;7.50;6.80;;;15.90;71.10;;;;;;4978281;28;20504;-43
2022/05/08 01:36:20;;;;;;;8.23;6.80;;;15.80;71.20;;;;;;4960991;28;20472;-44
2022/05/08 01:38:47;;;;;;;8.43;7.00;;;15.80;71.30;;;;;;4981370;28;20459;-45
2022/05/08 01:41:14;;;;;;;6.77;6.07;;;15.80;71.40;;;;;;4981069;28;21297;-44
2022/05/08 01:43:41;;;;;;;8.13;7.10;;;15.80;71.50;;;;;;4961220;28;20880;-44
2022/05/08 01:46:10;;;;;;;7.83;7.13;;;15.80;71.60;;;;;;4961634;28;20476;-43
2022/05/08 01:48:37;;;;;;;9.23;7.50;;;15.70;71.70;;;;;;4978635;28;20451;-44
2022/05/08 01:51:04;;;;;;;9.00;6.67;;;15.70;71.70;;;;;;4978537;28;20478;-43
2022/05/08 01:53:33;;;;;;;8.07;6.63;;;15.70;71.70;;;;;;4979857;28;20476;-44
2022/05/08 01:56:02;;;;;;;8.37;7.33;;;15.70;71.80;;;;;;4978646;28;20492;-44
2022/05/08 01:58:29;;;;;;;10.40;8.23;;;15.60;71.90;;;;;;4967231;28;20480;-43
2022/05/08 02:00:59;;;;;;;7.67;6.97;;;15.60;71.90;;;;;;4983483;28;21074;-44
2022/05/08 02:03:26;;;;;;;8.33;7.43;;;15.60;71.90;;;;;;4970041;28;20491;-44
2022/05/08 02:05:53;;;;;;;9.50;7.60;;;15.60;71.90;;;;;;4978930;28;20465;-43
2022/05/08 02:08:20;;;;;;;8.30;7.50;;;15.50;71.90;;;;;;4963832;28;20502;-43
2022/05/08 02:10:47;;;;;;;8.47;7.67;;;15.50;72.00;;;;;;4965583;28;21001;-43
2022/05/08 02:13:15;;;;;;;7.83;7.10;;;15.50;72.10;;;;;;4979769;28;20564;-43
2022/05/08 02:15:42;;;;;;;8.07;7.37;;;15.40;72.20;;;;;;4978741;28;20471;-44
2022/05/08 02:18:09;;;;;;;9.50;8.50;;;15.40;72.20;;;;;;4961869;28;20470;-44
2022/05/08 02:20:39;;;;;;;9.87;8.60;;;15.40;72.40;;;;;;4975713;28;20481;-43
2022/05/08 02:23:07;;;;;;;14.80;12.17;;;15.40;72.40;;;;;;4976592;28;20503;-42
2022/05/08 02:25:34;;;;;;;11.83;10.60;;;15.40;72.30;;;;;;4961064;28;20473;-43
2022/05/08 02:28:01;;;;;;;13.00;10.73;;;15.40;72.40;;;;;;4978697;28;20463;-43
2022/05/08 02:30:28;;;;;;;9.17;8.17;;;15.30;72.50;;;;;;4964380;28;20457;-43
2022/05/08 02:32:55;;;;;;;8.83;7.73;;;15.30;72.60;;;;;;4948859;28;20807;-43
2022/05/08 02:35:22;;;;;;;9.40;7.47;;;15.30;72.50;;;;;;4979849;28;20549;-43
2022/05/08 02:37:53;;;;;;;8.77;7.87;;;15.30;72.60;;;;;;4976569;28;20479;-43
2022/05/08 02:40:22;;;;;;;9.20;8.27;;;15.30;72.70;;;;;;4962235;28;20474;-43
2022/05/08 02:42:50;;;;;;;9.37;8.43;;;15.20;72.80;;;;;;4968214;28;20472;-43
2022/05/08 02:45:18;;;;;;;8.60;7.80;;;15.20;72.80;;;;;;4983970;28;20500;-43
2022/05/08 02:47:45;;;;;;;11.13;10.03;;;15.10;72.90;;;;;;4982400;28;20940;-43
2022/05/08 02:50:12;;;;;;;9.23;8.33;;;15.10;73.00;;;;;;4983051;28;20551;-43
2022/05/08 02:52:39;;;;;;;10.60;9.50;;;15.10;73.00;;;;;;4983267;28;20457;-45
2022/05/08 03:00:41;;;;;;;12.27;9.30;;;15.00;72.90;;;;;;4977767;28;20472;-45
2022/05/08 03:03:08;;;;;;;10.70;9.20;;;15.00;73.00;;;;;;4983967;28;21016;-45
2022/05/08 03:05:36;;;;;;;10.03;8.87;;;15.00;73.10;;;;;;4985137;28;20583;-46
2022/05/08 03:08:07;;;;;;;9.20;8.30;;;14.90;73.10;;;;;;4965496;28;20453;-45
2022/05/08 03:13:20;;;;;;;9.53;8.70;;;14.90;73.30;;;;;;4981749;28;20540;-45
2022/05/08 03:15:47;;;;;;;8.13;7.03;;;14.90;73.40;;;;;;4983398;28;20462;-45
2022/05/08 03:18:15;;;;;;;9.00;8.10;;;14.90;73.40;;;;;;4985681;28;20869;-45
2022/05/08 03:20:42;;;;;;;13.07;8.63;;;14.80;73.40;;;;;;4973094;28;20465;-45
2022/05/08 03:23:09;;;;;;;8.43;7.50;;;14.80;73.50;;;;;;4979684;28;20476;-45
2022/05/08 03:25:36;;;;;;;11.47;8.13;;;14.80;73.60;;;;;;4984393;28;20843;-45
2022/05/08 03:28:03;;;;;;;10.60;8.00;;;14.80;73.70;;;;;;4983167;28;20544;-45
2022/05/08 03:30:30;;;;;;;10.83;7.60;;;14.70;73.60;;;;;;4983480;28;20464;-45
2022/05/08 03:32:58;;;;;;;9.23;8.40;;;14.70;73.50;;;;;;4982696;28;20815;-45
2022/05/08 03:35:25;;;;;;;9.80;8.37;;;14.70;73.30;;;;;;4984072;28;20511;-45
2022/05/08 03:37:52;;;;;;;9.77;8.80;;;14.70;73.10;;;;;;4984904;28;20479;-45
2022/05/08 03:40:19;;;;;;;9.30;7.80;;;14.60;73.10;;;;;;4985285;28;20998;-45
2022/05/08 03:42:46;;;;;;;8.83;8.03;;;14.60;73.20;;;;;;4984903;28;20487;-45
2022/05/08 03:45:13;;;;;;;9.40;7.60;;;14.60;73.10;;;;;;4982699;28;20492;-45
2022/05/08 03:47:39;;;;;;;10.10;8.10;;;14.60;73.30;;;;;;4975869;28;20552;-45
2022/05/08 03:50:07;;;;;;;9.63;8.13;;;14.60;73.50;;;;;;4983788;28;20510;-45
2022/05/08 03:52:34;;;;;;;10.30;7.77;;;14.60;73.60;;;;;;4982201;28;20463;-45
2022/05/08 03:55:02;;;;;;;12.30;8.53;;;14.60;74.10;;;;;;4985338;28;20973;-45
2022/05/08 03:57:29;;;;;;;10.60;8.23;;;14.60;74.20;;;;;;4981808;28;20479;-45
2022/05/08 03:59:56;;;;;;;8.60;7.27;;;14.60;74.20;;;;;;4965175;28;20468;-45
2022/05/08 04:02:23;;;;;;;12.00;8.10;;;14.60;74.40;;;;;;4984567;28;20481;-45
2022/05/08 04:04:50;;;;;;;9.00;8.10;;;14.60;74.30;;;;;;4985897;28;20503;-45
2022/05/08 04:07:17;;;;;;;8.80;7.97;;;14.60;74.40;;;;;;4966688;28;20472;-45
2022/05/08 04:09:44;;;;;;;8.60;7.80;;;14.70;74.40;;;;;;4984254;28;20827;-45
2022/05/08 04:12:10;;;;;;;7.90;7.20;;;14.70;74.40;;;;;;4983569;28;20552;-45
2022/05/08 04:14:37;;;;;;;11.03;8.67;;;14.70;74.50;;;;;;4982004;28;20477;-45
2022/05/08 04:17:04;;;;;;;11.30;10.00;;;14.70;74.60;;;;;;4979576;28;20977;-45
2022/05/08 04:19:31;;;;;;;9.83;7.57;;;14.70;74.70;;;;;;4985075;28;20469;-45
2022/05/08 04:24:43;;;;;;;10.90;8.73;;;14.70;75.10;;;;;;4978865;28;20496;-45
2022/05/08 04:27:10;;;;;;;9.17;8.27;;;14.80;75.20;;;;;;4983811;28;20460;-45
2022/05/08 04:29:37;;;;;;;8.87;7.97;;;14.70;75.10;;;;;;4983136;28;20486;-45
2022/05/08 04:32:04;;;;;;;9.43;8.50;;;14.80;75.20;;;;;;4962907;28;20484;-45
2022/05/08 04:34:31;;;;;;;9.67;8.77;;;14.80;75.00;;;;;;4985665;28;20501;-45
2022/05/08 04:36:58;;;;;;;9.63;8.63;;;14.80;75.00;;;;;;4981101;28;20457;-45
2022/05/08 04:39:25;;;;;;;10.00;9.00;;;14.90;75.10;;;;;;4977430;28;20472;-45
2022/05/08 04:41:52;;;;;;;10.07;9.10;;;14.90;75.10;;;;;;4981015;28;20495;-45
2022/05/08 04:44:20;;;;;;;15.17;8.53;;;14.90;75.10;;;;;;4982312;28;20866;-45
2022/05/08 04:46:47;;;;;;;8.73;7.93;;;14.90;75.30;;;;;;4978554;28;20454;-45
2022/05/08 04:49:14;;;;;;;9.60;8.13;;;14.90;75.40;;;;;;4983093;28;20502;-45
2022/05/08 04:51:40;;;;;;;10.27;8.70;;;14.90;75.60;;;;;;4980048;28;20464;-45
2022/05/08 04:54:07;;;;;;;10.13;9.10;;;14.90;75.60;;;;;;4967150;28;20876;-45
2022/05/08 04:56:34;;;;;;;10.40;8.90;;;15.00;75.50;;;;;;4982087;28;20480;-45
2022/05/08 04:59:01;;;;;;;9.03;8.13;;;15.00;75.40;;;;;;4980300;28;20503;-45
2022/05/08 05:01:27;;;;;;;9.83;8.20;;;15.00;75.30;;;;;;4982644;28;20496;-45
2022/05/08 05:03:55;;;;;;;13.87;8.40;;;15.00;75.50;;;;;;4979821;28;20478;-46
2022/05/08 05:06:24;;;;;;;9.80;7.93;;;15.10;75.50;;;;;;4981535;28;20468;-45
2022/05/08 05:08:51;;;;;;;9.17;8.27;;;15.10;75.40;;;;;;4978988;28;20452;-45
2022/05/08 05:11:19;;;;;;;11.30;9.33;;;15.10;75.40;;;;;;4975910;28;20465;-45
2022/05/08 05:13:45;;;;;;;9.67;8.67;;;15.10;75.40;;;;;;4979092;28;20999;-45
2022/05/08 05:16:12;;;;;;;10.10;9.20;;;15.20;75.40;;;;;;4980002;28;20461;-45
2022/05/08 05:18:39;;;;;;;9.97;8.43;;;15.20;75.20;;;;;;4971449;28;20472;-45
2022/05/08 05:21:05;;;;;;;9.77;8.77;;;15.30;75.20;;;;;;4982626;28;20477;-45
2022/05/08 05:23:36;;;;;;;9.77;8.07;;;15.30;75.10;;;;;;4979197;28;20555;-45
2022/05/08 05:26:03;;;;;;;8.33;7.53;;;15.40;75.00;;;;;;4961369;28;20500;-45
2022/05/08 05:28:30;;;;;;;10.50;8.90;;;15.40;74.90;;;;;;4982317;28;20531;-46
2022/05/08 05:30:57;;;;;;;10.80;8.60;;;15.50;74.70;;;;;;4967522;28;20492;-45
2022/05/08 05:33:24;;;;;;;10.07;8.17;;;15.50;74.10;;;;;;4981938;28;20453;-45
2022/05/08 05:35:51;;;;;;;11.00;8.90;;;15.50;74.00;;;;;;4975370;28;20481;-45
2022/05/08 05:38:17;;;;;;;9.17;7.73;;;15.60;74.00;;;;;;4979813;28;20468;-45
2022/05/08 05:40:44;;;;;;;9.43;7.97;;;15.60;73.90;;;;;;4978529;28;20923;-46
2022/05/08 05:43:11;;;;;;;12.53;9.30;;;15.70;73.80;;;;;;4979747;28;20471;-45
2022/05/08 05:45:39;;;;;;;9.60;8.60;;;15.70;73.50;;;;;;4980475;28;20503;-45
2022/05/08 05:48:06;;;;;;;9.43;8.43;;;15.80;73.50;;;;;;4982869;28;21007;-45
2022/05/08 05:50:33;;;;;;;9.80;8.80;;;15.80;73.40;;;;;;4974509;28;20471;-45
2022/05/08 05:53:01;;;;;;;11.50;9.90;;;15.90;73.30;;;;;;4963748;28;20495;-46
2022/05/08 05:55:28;;;;;;;10.80;7.57;;;16.00;72.70;;;;;;4959822;28;21133;-47
2022/05/08 05:57:55;;;;;;;11.00;8.60;;;16.10;72.70;;;;;;4975883;28;20465;-46
2022/05/08 06:00:22;;;;;;;10.97;9.20;;;16.10;72.60;;;;;;4970482;28;21225;-46
2022/05/08 06:02:49;;;;;;;10.93;9.20;;;16.20;72.90;;;;;;4972970;28;20480;-45
2022/05/08 06:05:15;;;;;;;10.03;8.13;;;16.30;72.50;;;;;;4974130;28;21002;-45
2022/05/08 06:07:42;;;;;;;9.90;7.60;;;16.20;72.40;;;;;;4972490;28;20479;-46
2022/05/08 06:10:11;;;;;;;9.53;8.53;;;16.30;72.50;;;;;;4957664;28;20477;-46
2022/05/08 06:12:38;;;;;;;10.33;7.90;;;16.30;72.40;;;;;;4958874;28;20469;-45
2022/05/08 06:15:08;;;;;;;8.83;8.03;;;16.40;71.90;;;;;;4960177;28;20487;-46
2022/05/08 06:17:35;;;;;;;10.53;8.73;;;16.50;71.50;;;;;;4974644;28;20473;-46
2022/05/08 06:20:03;;;;;;;10.17;8.23;;;16.60;71.40;;;;;;4978669;28;20867;-45
2022/05/08 06:22:32;;;;;;;8.23;7.43;;;16.70;71.10;;;;;;4974942;28;20594;-45
2022/05/08 06:24:59;;;;;;;10.30;9.20;;;16.80;70.50;;;;;;4972872;28;20498;-46
2022/05/08 06:27:26;;;;;;;8.63;7.83;;;16.80;70.60;;;;;;4976531;28;20469;-46
2022/05/08 06:29:53;;;;;;;9.13;7.83;;;16.90;70.30;;;;;;4969382;28;20461;-45
2022/05/08 06:32:21;;;;;;;11.73;7.80;;;17.00;69.80;;;;;;4975733;28;20480;-45
2022/05/08 06:34:48;;;;;;;8.27;7.30;;;17.00;69.80;;;;;;4954204;28;20971;-45
2022/05/08 06:37:16;;;;;;;8.73;7.10;;;17.10;69.80;;;;;;4975194;28;20467;-45
2022/05/08 06:39:42;;;;;;;8.40;7.60;;;17.30;69.90;;;;;;4977099;28;21014;-45
2022/05/08 06:42:09;;;;;;;13.03;8.10;;;17.40;68.90;;;;;;4983005;28;20480;-45
2022/05/08 06:44:36;;;;;;;13.67;9.10;;;17.40;68.50;;;;;;4978083;28;21034;-45
2022/05/08 06:47:04;;;;;;;9.83;8.17;;;17.60;68.60;;;;;;4967496;28;20467;-45
2022/05/08 06:49:31;;;;;;;9.40;7.93;;;17.70;68.80;;;;;;4982248;28;20466;-44
2022/05/08 06:51:58;;;;;;;11.10;7.47;;;17.80;68.10;;;;;;4977735;28;20453;-45
2022/05/08 06:54:26;;;;;;;8.10;7.30;;;17.80;68.30;;;;;;4974331;28;20848;-44
2022/05/08 06:56:53;;;;;;;7.70;6.83;;;18.00;68.10;;;;;;4980077;28;20471;-45
2022/05/08 07:02:07;;;;;;;8.23;7.03;;;18.20;67.60;;;;;;4976559;28;20841;-44
2022/05/08 07:04:34;;;;;;;11.20;7.40;;;18.40;67.10;;;;;;4966644;28;20595;-44
2022/05/08 07:07:01;;;;;;;7.60;6.80;;;18.50;66.30;;;;;;4977970;28;20473;-44
2022/05/08 07:09:28;;;;;;;8.37;6.90;;;18.60;65.50;;;;;;4964617;28;20543;-44
2022/05/08 07:11:55;;;;;;;7.63;6.87;;;18.80;64.60;;;;;;4967325;28;20502;-45
2022/05/08 07:14:27;;;;;;;7.93;7.13;;;18.80;64.80;;;;;;4964811;28;20501;-44
2022/05/08 07:16:54;;;;;;;8.20;7.50;;;19.00;65.20;;;;;;4974493;28;20469;-44
2022/05/08 07:19:21;;;;;;;8.17;7.27;;;19.10;64.40;;;;;;4976336;28;20468;-45
2022/05/08 07:21:47;;;;;;;9.10;8.20;;;19.20;64.10;;;;;;4972254;28;20461;-45
2022/05/08 07:24:20;;;;;;;8.63;7.73;;;19.30;63.50;;;;;;4974252;28;20487;-45
2022/05/08 07:26:47;;;;;;;8.20;7.17;;;19.40;64.10;;;;;;4954955;28;20462;-45
2022/05/08 07:29:14;;;;;;;9.30;7.43;;;19.50;63.70;;;;;;4975182;28;20828;-45
2022/05/08 07:31:42;;;;;;;8.53;7.13;;;19.60;63.00;;;;;;4974798;28;20586;-45
2022/05/08 07:36:55;;;;;;;8.53;7.70;;;20.00;63.10;;;;;;4979529;28;20461;-45
2022/05/08 07:39:23;;;;;;;8.20;6.67;;;20.10;62.60;;;;;;4974427;28;20559;-45
2022/05/08 07:41:49;;;;;;;8.77;7.03;;;20.20;62.60;;;;;;4969096;28;21457;-44
2022/05/08 07:44:17;;;;;;;8.73;7.90;;;20.30;62.10;;;;;;4967584;28;20475;-45
2022/05/08 07:46:44;;;;;;;7.33;6.53;;;20.40;61.90;;;;;;4960513;28;20879;-45
2022/05/08 07:49:11;;;;;;;7.40;6.37;;;20.50;61.70;;;;;;4982845;28;20441;-45
2022/05/08 07:51:38;;;;;;;9.00;6.07;;;20.70;61.70;;;;;;4951155;28;20462;-45
2022/05/08 07:54:05;;;;;;;8.10;7.37;;;20.90;60.80;;;;;;4981439;28;20966;-45
2022/05/08 07:56:32;;;;;;;9.47;7.40;;;21.00;60.60;;;;;;4981368;28;20478;-45
2022/05/08 07:58:58;;;;;;;9.13;7.50;;;21.10;60.60;;;;;;4979047;28;20458;-44
2022/05/08 08:01:25;;;;;;;8.30;7.50;;;21.20;60.00;;;;;;4980515;28;20475;-45
2022/05/08 08:04:12;;;;;;;8.37;7.53;;;21.30;59.80;;;;;;4980456;28;20462;-44
2022/05/08 08:06:39;;;;;;;7.63;6.93;;;21.30;58.30;;;;;;4977726;28;20940;-45
2022/05/08 08:09:05;;;;;;;7.90;6.67;;;21.40;58.30;;;;;;4980072;28;20465;-45
2022/05/08 08:11:32;;;;;;;7.00;6.30;;;21.60;57.90;;;;;;4963920;28;20464;-44
2022/05/08 08:13:59;;;;;;;7.93;7.23;;;21.70;58.30;;;;;;4979287;28;20454;-45
2022/05/08 08:16:26;;;;;;;8.27;7.47;;;21.90;57.90;;;;;;4986539;28;20544;-45
2022/05/08 08:18:56;;;;;;;8.83;7.57;;;22.10;57.80;;;;;;4978107;28;20547;-45
2022/05/08 08:21:23;;;;;;;9.43;7.43;;;22.20;57.50;;;;;;4979113;28;21061;-45
2022/05/08 08:23:50;;;;;;;7.80;7.10;;;22.30;57.30;;;;;;4982425;28;20469;-45
2022/05/08 08:26:17;;;;;;;7.23;6.63;;;22.30;57.60;;;;;;4981547;28;20492;-46
2022/05/08 08:28:44;;;;;;;7.43;6.73;;;22.40;57.20;;;;;;4984246;28;20535;-45
2022/05/08 08:31:11;;;;;;;8.60;7.63;;;22.50;56.40;;;;;;4983594;28;20476;-47
2022/05/08 08:33:40;;;;;;;7.30;6.57;;;22.60;54.80;;;;;;4975081;28;20497;-45
2022/05/08 08:36:08;;;;;;;7.50;6.53;;;22.70;54.70;;;;;;4975097;28;20469;-46
2022/05/08 08:38:35;;;;;;;6.47;5.80;;;22.90;55.20;;;;;;4985977;28;20536;-46
2022/05/08 08:41:04;;;;;;;7.90;6.67;;;23.00;54.20;;;;;;4981155;28;20547;-46
2022/05/08 08:49:21;;;;;;;7.57;6.90;;;23.40;52.20;;;;;;4979527;28;20452;-44
2022/05/08 08:51:48;;;;;;;7.33;6.33;;;23.60;51.60;;;;;;4977517;28;20457;-44
2022/05/08 08:54:19;;;;;;;6.90;6.20;;;23.70;52.10;;;;;;4982786;28;20487;-45
2022/05/08 08:56:48;;;;;;;7.00;6.30;;;23.80;51.20;;;;;;4984721;28;20446;-45
2022/05/08 08:59:21;;;;;;;6.27;5.70;;;23.90;51.00;;;;;;4982722;28;20882;-44
2022/05/08 09:01:48;;;;;;;6.33;5.80;;;24.00;51.60;;;;;;4981769;28;20969;-44
2022/05/08 09:04:15;;;;;;;8.70;6.37;;;24.20;51.00;;;;;;4976324;28;20474;-45
2022/05/08 09:06:43;;;;;;;9.53;6.30;;;24.40;50.70;;;;;;4979120;28;20546;-44
2022/05/08 09:09:36;;;;;;;6.73;6.10;;;24.50;50.20;;;;;;4979795;28;20862;-44
2022/05/08 09:12:16;;;;;;;6.37;5.60;;;24.60;49.70;;;;;;4981027;28;20464;-48
2022/05/08 09:14:43;;;;;;;6.40;5.50;;;24.70;49.70;;;;;;4980590;28;20503;-48
2022/05/08 09:17:09;;;;;;;6.10;5.20;;;24.90;49.60;;;;;;4977360;28;20461;-47
2022/05/08 09:19:38;;;;;;;7.73;5.30;;;25.10;48.90;;;;;;4978872;28;20462;-48
2022/05/08 09:22:06;;;;;;;7.30;6.60;;;25.30;48.30;;;;;;4971480;28;20442;-47
2022/05/08 09:24:35;;;;;;;8.00;5.87;;;25.40;47.30;;;;;;4982151;28;20461;-48
2022/05/08 09:27:16;;;;;;;7.73;6.90;;;25.60;47.00;;;;;;4979997;28;20496;-48
2022/05/08 09:29:43;;;;;;;7.13;6.37;;;25.80;46.90;;;;;;4980534;28;20492;-48
2022/05/08 09:32:50;;;;;;;9.37;6.13;;;26.00;46.90;;;;;;4979001;28;20500;-48
2022/05/08 09:35:18;;;;;;;6.10;5.23;;;26.20;46.70;;;;;;4966509;28;20466;-49
2022/05/08 09:37:53;;;;;;;6.83;6.13;;;26.30;46.00;;;;;;4981842;28;20466;-48
2022/05/08 09:40:21;;;;;;;7.67;6.97;;;26.50;45.80;;;;;;4983435;28;20976;-47
2022/05/08 09:42:48;;;;;;;9.87;6.07;;;26.70;45.40;;;;;;4984333;28;20456;-49
2022/05/08 09:45:15;;;;;;;6.87;6.23;;;26.80;44.90;;;;;;4984856;28;20489;-48
2022/05/08 09:47:47;;;;;;;7.23;6.47;;;26.90;45.40;;;;;;4979778;28;20824;-47
2022/05/08 09:50:16;;;;;;;8.83;6.50;;;27.20;45.60;;;;;;4980419;28;20543;-48
2022/05/08 09:52:45;;;;;;;6.90;6.17;;;27.20;44.80;;;;;;4982083;28;20455;-48
2022/05/08 09:55:13;;;;;;;7.00;6.30;;;27.30;44.40;;;;;;4972493;28;20962;-47
2022/05/08 09:57:39;;;;;;;6.33;5.50;;;27.40;44.30;;;;;;4970536;28;20822;-49
2022/05/08 10:00:12;;;;;;;6.80;5.90;;;27.50;44.60;;;;;;4977330;28;20240;-48
2022/05/08 10:02:43;;;;;;;7.10;6.50;;;27.70;44.40;;;;;;4979672;28;20656;-49
2022/05/08 10:05:10;;;;;;;6.63;5.87;;;27.80;44.10;;;;;;4981797;28;20461;-50
2022/05/08 10:07:41;;;;;;;7.23;5.80;;;27.90;43.20;;;;;;4975387;28;20209;-48
2022/05/08 10:15:48;;;;;;;7.10;6.10;;;27.90;43.00;;;;;;4983299;28;20216;-49
2022/05/08 10:18:27;;;;;;;7.90;7.10;;;27.90;42.90;;;;;;4979087;28;20256;-49
2022/05/08 10:21:03;;;;;;;7.40;6.77;;;27.80;43.10;;;;;;4980316;28;20220;-49
2022/05/08 10:23:41;;;;;;;6.30;5.63;;;27.70;43.20;;;;;;4958836;28;20275;-47
2022/05/08 10:26:19;;;;;;;7.33;6.20;;;27.60;43.50;;;;;;4977624;28;20234;-49
2022/05/08 10:29:13;;;;;;;7.10;6.40;;;27.60;44.30;;;;;;4980130;28;20213;-48
2022/05/08 10:31:47;;;;;;;6.77;5.93;;;27.50;44.10;;;;;;4978903;28;20301;-49
2022/05/08 10:34:16;;;;;;;8.40;7.00;;;27.30;45.10;;;;;;4982031;28;20462;-49
2022/05/08 10:37:11;;;;;;;7.40;6.37;;;27.00;44.50;;;;;;4982784;28;20318;-48
2022/05/08 10:39:48;;;;;;;6.70;6.10;;;26.50;45.50;;;;;;4980299;28;20547;-48
2022/05/08 10:42:24;;;;;;;8.20;7.40;;;26.20;45.90;;;;;;4982805;28;20528;-49
2022/05/08 10:44:51;;;;;;;7.47;6.87;;;26.10;46.20;;;;;;4979685;28;20461;-48
2022/05/08 10:47:33;;;;;;;6.87;6.23;;;26.00;46.40;;;;;;4973644;28;20484;-48
2022/05/08 10:50:04;;;;;;;7.30;6.60;;;25.90;46.80;;;;;;4982202;28;20463;-49
2022/05/08 10:52:33;;;;;;;7.23;6.53;;;25.90;47.00;;;;;;4977509;28;21065;-48
2022/05/08 10:55:04;;;;;;;6.90;5.83;;;25.70;47.20;;;;;;4982315;28;20440;-47
2022/05/08 10:57:33;;;;;;;6.57;5.90;;;25.70;47.60;;;;;;4981563;28;21011;-48
2022/05/08 11:00:03;;;;;;;7.20;6.50;;;25.60;47.80;;;;;;4969491;28;20458;-48
2022/05/08 11:02:39;;;;;;;9.07;6.53;;;25.50;48.20;;;;;;4982130;28;20503;-49
2022/05/08 11:05:07;;;;;;;7.07;6.40;;;25.30;47.80;;;;;;4981500;28;20494;-48
2022/05/08 11:07:34;;;;;;;6.80;6.20;;;25.20;48.40;;;;;;4986224;28;21046;-49
2022/05/08 11:10:01;;;;;;;8.23;6.90;;;25.10;49.10;;;;;;4980738;28;20877;-48
2022/05/08 11:12:28;;;;;;;9.97;7.33;;;25.00;49.00;;;;;;4982103;28;20447;-49
2022/05/08 11:15:15;;;;;;;6.90;6.20;;;25.00;49.00;;;;;;4979832;28;20461;-49
2022/05/08 11:17:42;;;;;;;7.00;6.33;;;24.90;49.30;;;;;;4967562;28;20473;-48
2022/05/08 11:20:09;;;;;;;6.43;5.83;;;24.80;49.90;;;;;;4980621;28;20472;-48
2022/05/08 11:22:36;;;;;;;6.93;6.23;;;24.70;49.50;;;;;;4979945;28;20786;-49
2022/05/08 11:25:12;;;;;;;6.40;5.37;;;24.70;50.00;;;;;;4983062;28;20472;-49
2022/05/08 11:27:39;;;;;;;6.47;5.83;;;24.60;49.70;;;;;;4986297;28;20499;-50
2022/05/08 11:30:08;;;;;;;5.57;5.17;;;24.60;49.70;;;;;;4984412;28;20465;-49
2022/05/08 11:38:19;;;;;;;6.03;5.17;;;24.80;51.00;;;;;;4984995;28;20448;-48
2022/05/08 11:40:45;;;;;;;6.63;5.97;;;24.80;51.80;;;;;;4985084;28;20452;-48
2022/05/08 11:43:36;;;;;;;6.50;5.90;;;24.70;50.50;;;;;;4984217;28;20468;-49
2022/05/08 11:46:04;;;;;;;7.20;6.00;;;24.60;51.30;;;;;;4964268;28;20996;-49
2022/05/08 11:48:37;;;;;;;6.30;5.80;;;24.40;51.80;;;;;;4980560;28;20473;-48
2022/05/08 11:51:05;;;;;;;6.93;5.20;;;24.30;52.40;;;;;;4966278;28;20462;-48
2022/05/08 11:53:39;;;;;;;6.60;5.70;;;24.20;51.60;;;;;;4983040;28;20900;-48
2022/05/08 11:56:26;;;;;;;5.70;5.20;;;24.10;51.30;;;;;;4985453;28;20465;-48
2022/05/08 11:58:55;;;;;;;5.60;5.00;;;24.00;52.20;;;;;;4976347;28;21071;-49
2022/05/08 12:01:23;;;;;;;5.63;5.23;;;23.80;52.20;;;;;;4980844;28;20482;-48
2022/05/08 12:03:50;;;;;;;6.13;5.53;;;23.70;53.00;;;;;;4982361;28;20852;-48
2022/05/08 12:06:17;;;;;;;6.57;5.77;;;23.60;53.10;;;;;;4979312;28;20488;-48
2022/05/08 12:08:43;;;;;;;8.63;4.70;;;23.50;52.80;;;;;;4981335;28;20848;-48
2022/05/08 12:11:27;;;;;;;5.90;5.40;;;23.50;52.70;;;;;;4984491;28;20452;-47
2022/05/08 12:14:07;;;;;;;5.73;5.13;;;23.50;53.30;;;;;;4981006;28;20469;-48
2022/05/08 12:16:34;;;;;;;7.30;5.27;;;23.50;52.00;;;;;;4978425;28;20845;-48
2022/05/08 12:19:11;;;;;;;5.70;5.20;;;23.50;52.50;;;;;;4986378;28;20475;-48
2022/05/08 12:21:40;;;;;;;7.70;5.30;;;23.40;51.90;;;;;;4980408;28;20888;-48
2022/05/08 12:24:12;;;;;;;5.77;4.90;;;23.50;51.60;;;;;;4981888;28;20486;-48
2022/05/08 12:26:39;;;;;;;6.00;5.40;;;23.50;52.30;;;;;;4986113;28;20994;-48
2022/05/08 12:29:08;;;;;;;5.30;4.83;;;23.50;51.50;;;;;;4982861;28;20485;-48
2022/05/08 12:31:35;;;;;;;5.57;4.87;;;23.50;51.30;;;;;;4980186;28;20510;-48
2022/05/08 12:34:05;;;;;;;5.23;4.73;;;23.60;50.70;;;;;;4979723;28;20490;-48
2022/05/08 12:36:33;;;;;;;4.53;4.13;;;23.70;50.80;;;;;;4979628;28;20479;-49
2022/05/08 12:39:00;;;;;;;6.90;4.50;;;23.80;50.30;;;;;;4982578;28;20461;-49
2022/05/08 12:41:26;;;;;;;6.17;3.70;;;23.80;50.00;;;;;;4981265;28;20482;-49
2022/05/08 12:43:54;;;;;;;4.60;4.20;;;23.80;51.20;;;;;;4983652;28;20819;-49
2022/05/08 12:46:20;;;;;;;4.83;4.37;;;23.70;50.70;;;;;;4979863;28;20480;-49
2022/05/08 12:48:48;;;;;;;5.90;4.37;;;23.70;52.20;;;;;;4985221;28;20476;-48
2022/05/08 12:51:15;;;;;;;5.67;4.03;;;23.60;52.30;;;;;;4984548;28;20465;-48
2022/05/08 12:53:42;;;;;;;5.20;4.00;;;23.50;50.30;;;;;;4981881;28;20444;-48
2022/05/08 12:56:09;;;;;;;6.00;4.50;;;23.50;50.30;;;;;;4981342;28;20456;-48
2022/05/08 13:01:21;;;;;;;5.23;4.73;;;23.40;50.10;;;;;;4980938;28;20461;-48
2022/05/08 13:03:48;;;;;;;4.30;3.90;;;23.40;50.30;;;;;;4980026;28;20628;-48
2022/05/08 13:06:15;;;;;;;5.03;4.30;;;23.40;49.90;;;;;;4981547;28;21253;-48
2022/05/08 13:08:42;;;;;;;4.13;3.73;;;23.40;50.80;;;;;;4962691;28;20475;-48
2022/05/08 13:11:09;;;;;;;6.73;4.20;;;23.40;50.40;;;;;;4969982;28;20821;-48
2022/05/08 13:13:37;;;;;;;4.40;3.93;;;23.30;50.50;;;;;;4984069;28;20962;-49
2022/05/08 13:16:09;;;;;;;7.30;4.10;;;23.20;50.00;;;;;;4983519;28;20495;-48
2022/05/08 13:18:36;;;;;;;5.03;3.80;;;23.20;50.60;;;;;;4980860;28;20580;-48
2022/05/08 13:21:02;;;;;;;4.23;3.90;;;23.10;49.50;;;;;;4986598;28;20679;-48
2022/05/08 13:23:29;;;;;;;5.10;4.57;;;23.20;50.50;;;;;;4975949;28;20466;-48
2022/05/08 13:25:56;;;;;;;4.80;4.40;;;23.10;50.70;;;;;;4981153;28;20514;-48
2022/05/08 13:28:23;;;;;;;4.73;4.30;;;23.10;51.90;;;;;;4969370;28;20452;-48
2022/05/08 13:30:49;;;;;;;6.73;4.50;;;23.10;51.60;;;;;;4975371;28;20841;-48